sensor_id;sensor_type;location;lat;lon;timestamp;temperature;humidity
18163;DHT22;9206;50.994;4.538;2023-03-04T00:00:16;5.40;99.90
18163;DHT22;9206;50.994;4.538;2023-03-04T00:03:06;5.40;99.90
18163;DHT22;9206;50.994;4.538;2023-03-04T00:05:55;5.40;99.90
18163;DHT22;9206;50.994;4.538;2023-03-04T00:08:45;5.40;99.90
18163;DHT22;9206;50.994;4.538;2023-03-04T00:11:38;5.40;99.90
18163;DHT22;9206;50.994;4.538;2023-03-04T00:14:28;5.40;99.90
18163;DHT22;9206;50.994;4.538;2023-03-04T00:17:16;5.30;99.90
18163;DHT22;9206;50.994;4.538;2023-03-04T00:20:04;5.30;99.90
18163;DHT22;9206;50.994;4.538;2023-03-04T00:22:52;5.30;99.90
18163;DHT22;9206;50.994;4.538;2023-03-04T00:25:43;5.30;99.90
18163;DHT22;9206;50.994;4.538;2023-03-04T00:28:33;5.30;99.90
18163;DHT22;9206;50.994;4.538;2023-03-04T00:31:26;5.30;99.90
18163;DHT22;9206;50.994;4.538;2023-03-04T00:34:15;5.30;99.90
18163;DHT22;9206;50.994;4.538;2023-03-04T00:37:02;5.30;99.90
18163;DHT22;9206;50.994;4.538;2023-03-04T00:39:50;5.30;99.90
18163;DHT22;9206;50.994;4.538;2023-03-04T00:42:38;5.30;99.90
18163;DHT22;9206;50.994;4.538;2023-03-04T00:45:30;5.30;99.90
18163;DHT22;9206;50.994;4.538;2023-03-04T00:48:20;5.30;99.90
18163;DHT22;9206;50.994;4.538;2023-03-04T00:51:10;5.30;99.90
18163;DHT22;9206;50.994;4.538;2023-03-04T00:53:59;5.30;99.90
18163;DHT22;9206;50.994;4.538;2023-03-04T00:56:55;5.30;99.90
18163;DHT22;9206;50.994;4.538;2023-03-04T00:59:49;5.20;99.90
18163;DHT22;9206;50.994;4.538;2023-03-04T01:02:39;5.20;99.90
18163;DHT22;9206;50.994;4.538;2023-03-04T01:05:30;5.20;99.90
18163;DHT22;9206;50.994;4.538;2023-03-04T01:08:19;5.20;99.90
18163;DHT22;9206;50.994;4.538;2023-03-04T01:11:15;5.10;99.90
18163;DHT22;9206;50.994;4.538;2023-03-04T01:14:05;5.20;99.90
18163;DHT22;9206;50.994;4.538;2023-03-04T01:16:54;5.10;99.90
18163;DHT22;9206;50.994;4.538;2023-03-04T01:19:49;5.10;99.90
18163;DHT22;9206;50.994;4.538;2023-03-04T01:22:42;5.10;99.90
18163;DHT22;9206;50.994;4.538;2023-03-04T01:25:31;5.10;99.90
18163;DHT22;9206;50.994;4.538;2023-03-04T01:28:26;5.00;99.90
18163;DHT22;9206;50.994;4.538;2023-03-04T01:31:20;5.00;99.90
18163;DHT22;9206;50.994;4.538;2023-03-04T01:34:08;5.00;99.90
18163;DHT22;9206;50.994;4.538;2023-03-04T01:36:58;5.00;99.90
18163;DHT22;9206;50.994;4.538;2023-03-04T01:39:45;5.00;99.90
18163;DHT22;9206;50.994;4.538;2023-03-04T01:42:33;5.00;99.90
18163;DHT22;9206;50.994;4.538;2023-03-04T01:45:23;5.00;99.90
18163;DHT22;9206;50.994;4.538;2023-03-04T01:48:12;5.00;99.90
18163;DHT22;9206;50.994;4.538;2023-03-04T01:51:02;5.00;99.90
18163;DHT22;9206;50.994;4.538;2023-03-04T01:53:57;5.00;99.90
18163;DHT22;9206;50.994;4.538;2023-03-04T01:56:47;5.00;99.90
18163;DHT22;9206;50.994;4.538;2023-03-04T01:59:37;5.00;99.90
18163;DHT22;9206;50.994;4.538;2023-03-04T02:02:28;5.00;99.90
18163;DHT22;9206;50.994;4.538;2023-03-04T02:05:16;5.00;99.90
18163;DHT22;9206;50.994;4.538;2023-03-04T02:08:04;5.00;99.90
18163;DHT22;9206;50.994;4.538;2023-03-04T02:10:53;5.00;99.90
18163;DHT22;9206;50.994;4.538;2023-03-04T02:13:42;5.00;99.90
18163;DHT22;9206;50.994;4.538;2023-03-04T02:16:30;5.00;99.90
18163;DHT22;9206;50.994;4.538;2023-03-04T02:19:28;5.00;99.90
18163;DHT22;9206;50.994;4.538;2023-03-04T02:22:18;5.10;99.90
18163;DHT22;9206;50.994;4.538;2023-03-04T02:25:11;5.10;99.90
18163;DHT22;9206;50.994;4.538;2023-03-04T02:28:02;5.10;99.90
18163;DHT22;9206;50.994;4.538;2023-03-04T02:30:55;5.10;99.90
18163;DHT22;9206;50.994;4.538;2023-03-04T02:34:05;5.20;99.90
18163;DHT22;9206;50.994;4.538;2023-03-04T02:36:59;5.20;99.90
18163;DHT22;9206;50.994;4.538;2023-03-04T02:43:30;5.20;99.90
18163;DHT22;9206;50.994;4.538;2023-03-04T02:50:08;5.10;99.90
18163;DHT22;9206;50.994;4.538;2023-03-04T02:52:56;5.10;99.90
18163;DHT22;9206;50.994;4.538;2023-03-04T02:55:45;5.10;99.90
18163;DHT22;9206;50.994;4.538;2023-03-04T02:58:35;5.20;99.90
18163;DHT22;9206;50.994;4.538;2023-03-04T03:01:27;5.10;99.90
18163;DHT22;9206;50.994;4.538;2023-03-04T03:04:19;5.10;99.90
18163;DHT22;9206;50.994;4.538;2023-03-04T03:07:16;5.20;99.90
18163;DHT22;9206;50.994;4.538;2023-03-04T03:10:12;5.20;99.90
18163;DHT22;9206;50.994;4.538;2023-03-04T03:13:01;5.20;99.90
18163;DHT22;9206;50.994;4.538;2023-03-04T03:15:52;5.30;99.90
18163;DHT22;9206;50.994;4.538;2023-03-04T03:18:45;5.30;99.90
18163;DHT22;9206;50.994;4.538;2023-03-04T03:21:39;5.30;99.90
18163;DHT22;9206;50.994;4.538;2023-03-04T03:24:26;5.20;99.90
18163;DHT22;9206;50.994;4.538;2023-03-04T03:27:14;5.20;99.90
18163;DHT22;9206;50.994;4.538;2023-03-04T03:30:02;5.20;99.90
18163;DHT22;9206;50.994;4.538;2023-03-04T03:32:51;5.30;99.90
18163;DHT22;9206;50.994;4.538;2023-03-04T03:35:44;5.30;99.90
18163;DHT22;9206;50.994;4.538;2023-03-04T03:38:31;5.30;99.90
18163;DHT22;9206;50.994;4.538;2023-03-04T03:41:20;5.30;99.90
18163;DHT22;9206;50.994;4.538;2023-03-04T03:44:08;5.30;99.90
18163;DHT22;9206;50.994;4.538;2023-03-04T03:46:57;5.40;99.90
18163;DHT22;9206;50.994;4.538;2023-03-04T03:49:46;5.40;99.90
18163;DHT22;9206;50.994;4.538;2023-03-04T03:52:36;5.40;99.90
18163;DHT22;9206;50.994;4.538;2023-03-04T03:55:23;5.30;99.90
18163;DHT22;9206;50.994;4.538;2023-03-04T03:58:14;5.30;99.90
18163;DHT22;9206;50.994;4.538;2023-03-04T04:01:07;5.30;99.90
18163;DHT22;9206;50.994;4.538;2023-03-04T04:03:56;5.20;99.90
18163;DHT22;9206;50.994;4.538;2023-03-04T04:06:49;5.20;99.90
18163;DHT22;9206;50.994;4.538;2023-03-04T04:09:36;5.20;99.90
18163;DHT22;9206;50.994;4.538;2023-03-04T04:12:24;5.10;99.90
18163;DHT22;9206;50.994;4.538;2023-03-04T04:15:17;5.10;99.90
18163;DHT22;9206;50.994;4.538;2023-03-04T04:18:07;5.10;99.90
18163;DHT22;9206;50.994;4.538;2023-03-04T04:20:55;5.10;99.90
18163;DHT22;9206;50.994;4.538;2023-03-04T04:23:45;5.10;99.90
18163;DHT22;9206;50.994;4.538;2023-03-04T04:26:41;5.00;99.90
18163;DHT22;9206;50.994;4.538;2023-03-04T04:29:30;5.00;99.90
18163;DHT22;9206;50.994;4.538;2023-03-04T04:32:23;5.10;99.90
18163;DHT22;9206;50.994;4.538;2023-03-04T04:35:16;5.10;99.90
18163;DHT22;9206;50.994;4.538;2023-03-04T04:38:06;5.10;99.90
18163;DHT22;9206;50.994;4.538;2023-03-04T04:40:57;5.10;99.90
18163;DHT22;9206;50.994;4.538;2023-03-04T04:43:47;5.10;99.90
18163;DHT22;9206;50.994;4.538;2023-03-04T04:46:39;5.10;99.90
18163;DHT22;9206;50.994;4.538;2023-03-04T04:49:32;5.10;99.90
18163;DHT22;9206;50.994;4.538;2023-03-04T04:52:20;5.00;99.90
18163;DHT22;9206;50.994;4.538;2023-03-04T04:55:08;5.10;99.90
18163;DHT22;9206;50.994;4.538;2023-03-04T04:57:57;5.00;99.90
18163;DHT22;9206;50.994;4.538;2023-03-04T05:00:45;5.00;99.90
18163;DHT22;9206;50.994;4.538;2023-03-04T05:03:35;5.10;99.90
18163;DHT22;9206;50.994;4.538;2023-03-04T05:06:23;5.00;99.90
18163;DHT22;9206;50.994;4.538;2023-03-04T05:09:12;5.00;99.90
18163;DHT22;9206;50.994;4.538;2023-03-04T05:12:00;5.00;99.90
18163;DHT22;9206;50.994;4.538;2023-03-04T05:14:55;5.00;99.90
18163;DHT22;9206;50.994;4.538;2023-03-04T05:17:48;5.00;99.90
18163;DHT22;9206;50.994;4.538;2023-03-04T05:20:36;5.00;99.90
18163;DHT22;9206;50.994;4.538;2023-03-04T05:23:25;5.00;99.90
18163;DHT22;9206;50.994;4.538;2023-03-04T05:26:18;5.00;99.90
18163;DHT22;9206;50.994;4.538;2023-03-04T05:29:05;5.00;99.90
18163;DHT22;9206;50.994;4.538;2023-03-04T05:32:00;5.00;99.90
18163;DHT22;9206;50.994;4.538;2023-03-04T05:34:47;5.10;99.90
18163;DHT22;9206;50.994;4.538;2023-03-04T05:37:40;5.10;99.90
18163;DHT22;9206;50.994;4.538;2023-03-04T05:40:31;5.10;99.90
18163;DHT22;9206;50.994;4.538;2023-03-04T05:43:19;5.10;99.90
18163;DHT22;9206;50.994;4.538;2023-03-04T05:46:08;5.10;99.90
18163;DHT22;9206;50.994;4.538;2023-03-04T05:49:12;5.10;99.90
18163;DHT22;9206;50.994;4.538;2023-03-04T05:52:02;5.00;99.90
18163;DHT22;9206;50.994;4.538;2023-03-04T05:54:50;5.10;99.90
18163;DHT22;9206;50.994;4.538;2023-03-04T05:57:41;5.10;99.90
18163;DHT22;9206;50.994;4.538;2023-03-04T06:00:29;5.10;99.90
18163;DHT22;9206;50.994;4.538;2023-03-04T06:03:24;5.10;99.90
18163;DHT22;9206;50.994;4.538;2023-03-04T06:06:14;5.10;99.90
18163;DHT22;9206;50.994;4.538;2023-03-04T06:09:03;5.20;99.90
18163;DHT22;9206;50.994;4.538;2023-03-04T06:11:50;5.30;99.90
18163;DHT22;9206;50.994;4.538;2023-03-04T06:14:43;5.30;99.90
18163;DHT22;9206;50.994;4.538;2023-03-04T06:17:37;5.30;99.90
18163;DHT22;9206;50.994;4.538;2023-03-04T06:20:27;5.30;99.90
18163;DHT22;9206;50.994;4.538;2023-03-04T06:23:22;5.30;99.90
18163;DHT22;9206;50.994;4.538;2023-03-04T06:26:15;5.30;99.90
18163;DHT22;9206;50.994;4.538;2023-03-04T06:29:03;5.20;99.90
18163;DHT22;9206;50.994;4.538;2023-03-04T06:31:50;5.20;99.90
18163;DHT22;9206;50.994;4.538;2023-03-04T06:34:43;5.20;99.90
18163;DHT22;9206;50.994;4.538;2023-03-04T06:37:37;5.20;99.90
18163;DHT22;9206;50.994;4.538;2023-03-04T06:40:33;5.20;99.90
18163;DHT22;9206;50.994;4.538;2023-03-04T06:43:27;5.20;99.90
18163;DHT22;9206;50.994;4.538;2023-03-04T06:46:22;5.20;99.90
18163;DHT22;9206;50.994;4.538;2023-03-04T06:49:10;5.30;99.90
18163;DHT22;9206;50.994;4.538;2023-03-04T06:52:05;5.30;99.90
18163;DHT22;9206;50.994;4.538;2023-03-04T06:54:54;5.20;99.90
18163;DHT22;9206;50.994;4.538;2023-03-04T06:57:42;5.30;99.90
18163;DHT22;9206;50.994;4.538;2023-03-04T07:00:31;5.30;99.90
18163;DHT22;9206;50.994;4.538;2023-03-04T07:03:18;5.30;99.90
18163;DHT22;9206;50.994;4.538;2023-03-04T07:06:09;5.30;99.90
18163;DHT22;9206;50.994;4.538;2023-03-04T07:09:16;5.30;99.90
18163;DHT22;9206;50.994;4.538;2023-03-04T07:12:05;5.30;99.90
18163;DHT22;9206;50.994;4.538;2023-03-04T07:14:56;5.30;99.90
18163;DHT22;9206;50.994;4.538;2023-03-04T07:17:51;5.40;99.90
18163;DHT22;9206;50.994;4.538;2023-03-04T07:20:41;5.40;99.90
18163;DHT22;9206;50.994;4.538;2023-03-04T07:23:32;5.40;99.90
18163;DHT22;9206;50.994;4.538;2023-03-04T07:26:22;5.50;99.90
18163;DHT22;9206;50.994;4.538;2023-03-04T07:29:15;5.50;99.90
18163;DHT22;9206;50.994;4.538;2023-03-04T07:32:10;5.60;99.90
18163;DHT22;9206;50.994;4.538;2023-03-04T07:35:04;5.60;99.90
18163;DHT22;9206;50.994;4.538;2023-03-04T07:37:58;5.60;99.90
18163;DHT22;9206;50.994;4.538;2023-03-04T07:40:54;5.60;99.90
18163;DHT22;9206;50.994;4.538;2023-03-04T07:43:47;5.70;99.90
18163;DHT22;9206;50.994;4.538;2023-03-04T07:46:35;5.70;99.90
18163;DHT22;9206;50.994;4.538;2023-03-04T07:49:27;5.70;99.90
18163;DHT22;9206;50.994;4.538;2023-03-04T07:52:14;5.80;99.90
18163;DHT22;9206;50.994;4.538;2023-03-04T07:55:03;5.90;99.90
18163;DHT22;9206;50.994;4.538;2023-03-04T07:57:56;6.00;99.90
18163;DHT22;9206;50.994;4.538;2023-03-04T08:00:46;6.00;99.90
18163;DHT22;9206;50.994;4.538;2023-03-04T08:03:41;6.10;99.90
18163;DHT22;9206;50.994;4.538;2023-03-04T08:09:54;6.20;99.90
18163;DHT22;9206;50.994;4.538;2023-03-04T08:12:43;6.30;99.90
18163;DHT22;9206;50.994;4.538;2023-03-04T08:15:30;6.30;99.90
18163;DHT22;9206;50.994;4.538;2023-03-04T08:18:26;6.30;99.90
18163;DHT22;9206;50.994;4.538;2023-03-04T08:21:16;6.30;99.90
18163;DHT22;9206;50.994;4.538;2023-03-04T08:24:11;6.30;99.90
18163;DHT22;9206;50.994;4.538;2023-03-04T08:27:03;6.40;99.90
18163;DHT22;9206;50.994;4.538;2023-03-04T08:29:52;6.50;99.90
18163;DHT22;9206;50.994;4.538;2023-03-04T08:32:51;6.60;99.90
18163;DHT22;9206;50.994;4.538;2023-03-04T08:35:41;6.70;99.90
18163;DHT22;9206;50.994;4.538;2023-03-04T08:38:35;6.90;99.90
18163;DHT22;9206;50.994;4.538;2023-03-04T08:41:22;6.90;99.90
18163;DHT22;9206;50.994;4.538;2023-03-04T08:44:20;7.10;99.90
18163;DHT22;9206;50.994;4.538;2023-03-04T08:47:14;7.30;99.90
18163;DHT22;9206;50.994;4.538;2023-03-04T08:50:05;7.50;99.90
18163;DHT22;9206;50.994;4.538;2023-03-04T08:52:55;7.70;99.90
18163;DHT22;9206;50.994;4.538;2023-03-04T08:55:50;7.80;99.90
18163;DHT22;9206;50.994;4.538;2023-03-04T08:58:43;8.00;99.90
18163;DHT22;9206;50.994;4.538;2023-03-04T09:01:38;7.90;99.90
18163;DHT22;9206;50.994;4.538;2023-03-04T09:04:26;7.90;99.90
18163;DHT22;9206;50.994;4.538;2023-03-04T09:07:14;8.10;99.90
18163;DHT22;9206;50.994;4.538;2023-03-04T09:10:06;8.20;99.90
18163;DHT22;9206;50.994;4.538;2023-03-04T09:12:55;8.30;99.90
18163;DHT22;9206;50.994;4.538;2023-03-04T09:15:44;8.30;99.90
18163;DHT22;9206;50.994;4.538;2023-03-04T09:18:42;8.50;99.90
18163;DHT22;9206;50.994;4.538;2023-03-04T09:21:31;8.90;99.90
18163;DHT22;9206;50.994;4.538;2023-03-04T09:24:19;9.10;99.90
18163;DHT22;9206;50.994;4.538;2023-03-04T09:27:12;9.50;99.90
18163;DHT22;9206;50.994;4.538;2023-03-04T09:30:06;9.60;99.90
18163;DHT22;9206;50.994;4.538;2023-03-04T09:32:56;9.80;99.90
18163;DHT22;9206;50.994;4.538;2023-03-04T09:35:48;9.80;99.90
18163;DHT22;9206;50.994;4.538;2023-03-04T09:38:36;10.00;99.90
18163;DHT22;9206;50.994;4.538;2023-03-04T09:41:27;10.40;99.90
18163;DHT22;9206;50.994;4.538;2023-03-04T09:44:21;11.40;99.90
18163;DHT22;9206;50.994;4.538;2023-03-04T09:47:12;12.80;99.90
18163;DHT22;9206;50.994;4.538;2023-03-04T09:50:04;13.60;99.90
18163;DHT22;9206;50.994;4.538;2023-03-04T09:53:06;13.60;99.90
18163;DHT22;9206;50.994;4.538;2023-03-04T09:56:01;13.10;99.90
18163;DHT22;9206;50.994;4.538;2023-03-04T09:58:57;12.40;99.90
18163;DHT22;9206;50.994;4.538;2023-03-04T10:01:51;11.60;99.90
18163;DHT22;9206;50.994;4.538;2023-03-04T10:04:46;11.10;99.90
18163;DHT22;9206;50.994;4.538;2023-03-04T10:07:42;10.90;99.90
18163;DHT22;9206;50.994;4.538;2023-03-04T10:10:36;10.70;99.90
18163;DHT22;9206;50.994;4.538;2023-03-04T10:13:30;10.00;99.90
18163;DHT22;9206;50.994;4.538;2023-03-04T10:16:25;9.60;99.90
18163;DHT22;9206;50.994;4.538;2023-03-04T10:19:29;9.30;99.90
18163;DHT22;9206;50.994;4.538;2023-03-04T10:22:22;8.90;99.90
18163;DHT22;9206;50.994;4.538;2023-03-04T10:25:18;8.70;99.90
18163;DHT22;9206;50.994;4.538;2023-03-04T10:28:16;8.90;99.90
18163;DHT22;9206;50.994;4.538;2023-03-04T10:31:08;9.40;99.90
18163;DHT22;9206;50.994;4.538;2023-03-04T10:33:59;10.10;99.90
18163;DHT22;9206;50.994;4.538;2023-03-04T10:36:56;10.70;99.90
18163;DHT22;9206;50.994;4.538;2023-03-04T10:39:46;11.40;99.90
18163;DHT22;9206;50.994;4.538;2023-03-04T10:42:37;11.60;99.90
18163;DHT22;9206;50.994;4.538;2023-03-04T10:45:37;11.70;99.90
18163;DHT22;9206;50.994;4.538;2023-03-04T10:48:26;11.50;99.90
18163;DHT22;9206;50.994;4.538;2023-03-04T10:51:18;11.00;99.90
18163;DHT22;9206;50.994;4.538;2023-03-04T10:54:10;10.50;99.90
18163;DHT22;9206;50.994;4.538;2023-03-04T10:57:54;10.30;99.90
18163;DHT22;9206;50.994;4.538;2023-03-04T11:00:27;10.20;99.90
18163;DHT22;9206;50.994;4.538;2023-03-04T11:03:28;9.90;99.90
18163;DHT22;9206;50.994;4.538;2023-03-04T11:06:22;9.70;99.90
18163;DHT22;9206;50.994;4.538;2023-03-04T11:09:22;9.70;99.90
18163;DHT22;9206;50.994;4.538;2023-03-04T11:12:19;9.50;99.90
18163;DHT22;9206;50.994;4.538;2023-03-04T11:15:18;9.30;99.90
18163;DHT22;9206;50.994;4.538;2023-03-04T11:18:11;9.20;99.90
18163;DHT22;9206;50.994;4.538;2023-03-04T11:21:04;9.30;99.90
18163;DHT22;9206;50.994;4.538;2023-03-04T11:23:55;9.50;99.90
18163;DHT22;9206;50.994;4.538;2023-03-04T11:26:47;9.70;99.90
18163;DHT22;9206;50.994;4.538;2023-03-04T11:29:40;9.70;99.90
18163;DHT22;9206;50.994;4.538;2023-03-04T11:32:35;9.80;99.90
18163;DHT22;9206;50.994;4.538;2023-03-04T11:35:32;9.70;99.90
18163;DHT22;9206;50.994;4.538;2023-03-04T11:38:25;9.60;99.90
18163;DHT22;9206;50.994;4.538;2023-03-04T11:41:15;9.60;99.90
18163;DHT22;9206;50.994;4.538;2023-03-04T11:44:05;9.60;99.90
18163;DHT22;9206;50.994;4.538;2023-03-04T11:47:30;9.70;99.90
18163;DHT22;9206;50.994;4.538;2023-03-04T11:50:28;9.80;99.90
18163;DHT22;9206;50.994;4.538;2023-03-04T11:53:31;9.70;99.90
18163;DHT22;9206;50.994;4.538;2023-03-04T11:56:26;9.70;99.90
18163;DHT22;9206;50.994;4.538;2023-03-04T11:59:33;9.40;99.90
18163;DHT22;9206;50.994;4.538;2023-03-04T12:02:32;9.20;99.90
18163;DHT22;9206;50.994;4.538;2023-03-04T12:05:38;9.10;99.90
18163;DHT22;9206;50.994;4.538;2023-03-04T12:09:03;9.00;99.90
18163;DHT22;9206;50.994;4.538;2023-03-04T12:12:01;8.90;99.90
18163;DHT22;9206;50.994;4.538;2023-03-04T12:15:01;8.90;99.90
18163;DHT22;9206;50.994;4.538;2023-03-04T12:18:09;8.80;99.90
18163;DHT22;9206;50.994;4.538;2023-03-04T12:21:15;8.80;99.90
18163;DHT22;9206;50.994;4.538;2023-03-04T12:24:28;8.90;99.90
18163;DHT22;9206;50.994;4.538;2023-03-04T12:27:25;9.10;99.90
18163;DHT22;9206;50.994;4.538;2023-03-04T12:30:33;9.40;99.90
18163;DHT22;9206;50.994;4.538;2023-03-04T12:33:34;9.50;99.90
18163;DHT22;9206;50.994;4.538;2023-03-04T12:36:29;9.60;99.90
18163;DHT22;9206;50.994;4.538;2023-03-04T12:39:32;9.50;99.90
18163;DHT22;9206;50.994;4.538;2023-03-04T12:42:27;9.60;99.90
18163;DHT22;9206;50.994;4.538;2023-03-04T12:45:20;9.60;99.90
18163;DHT22;9206;50.994;4.538;2023-03-04T12:48:17;9.50;99.90
18163;DHT22;9206;50.994;4.538;2023-03-04T12:51:28;9.50;99.90
18163;DHT22;9206;50.994;4.538;2023-03-04T12:54:24;9.60;99.90
18163;DHT22;9206;50.994;4.538;2023-03-04T12:57:25;9.80;99.90
18163;DHT22;9206;50.994;4.538;2023-03-04T13:00:29;9.90;99.90
18163;DHT22;9206;50.994;4.538;2023-03-04T13:03:24;10.20;99.90
18163;DHT22;9206;50.994;4.538;2023-03-04T13:06:27;10.50;99.90
18163;DHT22;9206;50.994;4.538;2023-03-04T13:09:27;10.50;99.90
18163;DHT22;9206;50.994;4.538;2023-03-04T13:12:27;10.50;99.90
18163;DHT22;9206;50.994;4.538;2023-03-04T13:15:27;10.40;99.90
18163;DHT22;9206;50.994;4.538;2023-03-04T13:18:31;10.30;99.90
18163;DHT22;9206;50.994;4.538;2023-03-04T13:21:22;10.20;99.90
18163;DHT22;9206;50.994;4.538;2023-03-04T13:24:44;9.90;99.90
18163;DHT22;9206;50.994;4.538;2023-03-04T13:27:49;9.80;99.90
18163;DHT22;9206;50.994;4.538;2023-03-04T13:34:00;9.30;99.90
18163;DHT22;9206;50.994;4.538;2023-03-04T13:36:56;9.10;99.90
18163;DHT22;9206;50.994;4.538;2023-03-04T13:43:24;8.90;99.90
18163;DHT22;9206;50.994;4.538;2023-03-04T13:46:38;8.90;99.90
18163;DHT22;9206;50.994;4.538;2023-03-04T13:49:30;8.70;99.90
18163;DHT22;9206;50.994;4.538;2023-03-04T13:52:37;8.70;99.90
18163;DHT22;9206;50.994;4.538;2023-03-04T13:55:37;8.70;99.90
18163;DHT22;9206;50.994;4.538;2023-03-04T13:58:26;8.80;99.90
18163;DHT22;9206;50.994;4.538;2023-03-04T14:01:24;8.70;99.90
18163;DHT22;9206;50.994;4.538;2023-03-04T14:04:16;8.60;99.90
18163;DHT22;9206;50.994;4.538;2023-03-04T14:07:18;8.60;99.90
18163;DHT22;9206;50.994;4.538;2023-03-04T14:10:17;8.50;99.90
18163;DHT22;9206;50.994;4.538;2023-03-04T14:13:11;8.50;99.90
18163;DHT22;9206;50.994;4.538;2023-03-04T14:16:05;8.40;99.90
18163;DHT22;9206;50.994;4.538;2023-03-04T14:19:02;8.40;99.90
18163;DHT22;9206;50.994;4.538;2023-03-04T14:21:54;8.40;99.90
18163;DHT22;9206;50.994;4.538;2023-03-04T14:24:55;8.40;99.90
18163;DHT22;9206;50.994;4.538;2023-03-04T14:27:42;8.60;99.90
18163;DHT22;9206;50.994;4.538;2023-03-04T14:30:32;8.80;99.90
18163;DHT22;9206;50.994;4.538;2023-03-04T14:33:25;9.00;99.90
18163;DHT22;9206;50.994;4.538;2023-03-04T14:36:18;9.30;99.90
18163;DHT22;9206;50.994;4.538;2023-03-04T14:39:06;9.30;99.90
18163;DHT22;9206;50.994;4.538;2023-03-04T14:42:03;9.40;99.90
18163;DHT22;9206;50.994;4.538;2023-03-04T14:44:56;9.40;99.90
18163;DHT22;9206;50.994;4.538;2023-03-04T14:47:45;9.30;99.90
18163;DHT22;9206;50.994;4.538;2023-03-04T14:50:35;9.10;99.90
18163;DHT22;9206;50.994;4.538;2023-03-04T14:53:26;9.00;99.90
18163;DHT22;9206;50.994;4.538;2023-03-04T14:56:14;9.00;99.90
18163;DHT22;9206;50.994;4.538;2023-03-04T14:59:04;9.00;99.90
18163;DHT22;9206;50.994;4.538;2023-03-04T15:01:52;8.90;99.90
18163;DHT22;9206;50.994;4.538;2023-03-04T15:04:41;8.80;99.90
18163;DHT22;9206;50.994;4.538;2023-03-04T15:07:36;8.80;99.90
18163;DHT22;9206;50.994;4.538;2023-03-04T15:10:26;8.70;99.90
18163;DHT22;9206;50.994;4.538;2023-03-04T15:13:14;8.70;99.90
18163;DHT22;9206;50.994;4.538;2023-03-04T15:16:01;8.80;99.90
18163;DHT22;9206;50.994;4.538;2023-03-04T15:18:59;8.80;99.90
18163;DHT22;9206;50.994;4.538;2023-03-04T15:21:48;8.80;99.90
18163;DHT22;9206;50.994;4.538;2023-03-04T15:24:39;8.80;99.90
18163;DHT22;9206;50.994;4.538;2023-03-04T15:27:32;8.90;99.90
18163;DHT22;9206;50.994;4.538;2023-03-04T15:30:21;8.90;99.90
18163;DHT22;9206;50.994;4.538;2023-03-04T15:33:12;8.90;99.90
18163;DHT22;9206;50.994;4.538;2023-03-04T15:36:01;8.90;99.90
18163;DHT22;9206;50.994;4.538;2023-03-04T15:38:52;8.80;99.90
18163;DHT22;9206;50.994;4.538;2023-03-04T15:41:43;8.80;99.90
18163;DHT22;9206;50.994;4.538;2023-03-04T15:44:33;8.80;99.90
18163;DHT22;9206;50.994;4.538;2023-03-04T15:47:29;8.70;99.90
18163;DHT22;9206;50.994;4.538;2023-03-04T15:50:26;8.50;99.90
18163;DHT22;9206;50.994;4.538;2023-03-04T15:53:19;8.50;99.90
18163;DHT22;9206;50.994;4.538;2023-03-04T15:56:16;8.50;99.90
18163;DHT22;9206;50.994;4.538;2023-03-04T15:59:12;8.40;99.90
18163;DHT22;9206;50.994;4.538;2023-03-04T16:02:00;8.40;99.90
18163;DHT22;9206;50.994;4.538;2023-03-04T16:04:49;8.30;99.90
18163;DHT22;9206;50.994;4.538;2023-03-04T16:07:44;8.30;99.90
18163;DHT22;9206;50.994;4.538;2023-03-04T16:10:35;8.30;99.90
18163;DHT22;9206;50.994;4.538;2023-03-04T16:13:28;8.20;99.90
18163;DHT22;9206;50.994;4.538;2023-03-04T16:16:19;8.20;99.90
18163;DHT22;9206;50.994;4.538;2023-03-04T16:19:08;8.20;99.90
18163;DHT22;9206;50.994;4.538;2023-03-04T16:21:58;8.20;99.90
18163;DHT22;9206;50.994;4.538;2023-03-04T16:24:46;8.10;99.90
18163;DHT22;9206;50.994;4.538;2023-03-04T16:27:34;8.10;99.90
18163;DHT22;9206;50.994;4.538;2023-03-04T16:30:23;8.10;99.90
18163;DHT22;9206;50.994;4.538;2023-03-04T16:33:18;8.10;99.90
18163;DHT22;9206;50.994;4.538;2023-03-04T16:36:13;8.00;99.90
18163;DHT22;9206;50.994;4.538;2023-03-04T16:39:07;8.00;99.90
18163;DHT22;9206;50.994;4.538;2023-03-04T16:41:58;8.00;99.90
18163;DHT22;9206;50.994;4.538;2023-03-04T16:44:47;8.00;99.90
18163;DHT22;9206;50.994;4.538;2023-03-04T16:47:37;8.00;99.90
18163;DHT22;9206;50.994;4.538;2023-03-04T16:50:29;7.90;99.90
18163;DHT22;9206;50.994;4.538;2023-03-04T16:53:23;7.90;99.90
18163;DHT22;9206;50.994;4.538;2023-03-04T16:56:14;7.90;99.90
18163;DHT22;9206;50.994;4.538;2023-03-04T16:59:03;7.80;99.90
18163;DHT22;9206;50.994;4.538;2023-03-04T17:01:52;7.80;99.90
18163;DHT22;9206;50.994;4.538;2023-03-04T17:04:40;7.80;99.90
18163;DHT22;9206;50.994;4.538;2023-03-04T17:07:29;7.80;99.90
18163;DHT22;9206;50.994;4.538;2023-03-04T17:10:17;7.70;99.90
18163;DHT22;9206;50.994;4.538;2023-03-04T17:13:06;7.70;99.90
18163;DHT22;9206;50.994;4.538;2023-03-04T17:15:59;7.70;99.90
18163;DHT22;9206;50.994;4.538;2023-03-04T17:18:52;7.70;99.90
18163;DHT22;9206;50.994;4.538;2023-03-04T17:21:46;7.70;99.90
18163;DHT22;9206;50.994;4.538;2023-03-04T17:24:35;7.60;99.90
18163;DHT22;9206;50.994;4.538;2023-03-04T17:27:22;7.60;99.90
18163;DHT22;9206;50.994;4.538;2023-03-04T17:30:17;7.60;99.90
18163;DHT22;9206;50.994;4.538;2023-03-04T17:33:07;7.60;99.90
18163;DHT22;9206;50.994;4.538;2023-03-04T17:35:56;7.50;99.90
18163;DHT22;9206;50.994;4.538;2023-03-04T17:38:47;7.50;99.90
18163;DHT22;9206;50.994;4.538;2023-03-04T17:41:39;7.50;99.90
18163;DHT22;9206;50.994;4.538;2023-03-04T17:44:32;7.50;99.90
18163;DHT22;9206;50.994;4.538;2023-03-04T17:47:20;7.50;99.90
18163;DHT22;9206;50.994;4.538;2023-03-04T17:50:11;7.50;99.90
18163;DHT22;9206;50.994;4.538;2023-03-04T17:53:00;7.40;99.90
18163;DHT22;9206;50.994;4.538;2023-03-04T17:55:48;7.40;99.90
18163;DHT22;9206;50.994;4.538;2023-03-04T17:58:39;7.40;99.90
18163;DHT22;9206;50.994;4.538;2023-03-04T18:01:26;7.50;99.90
18163;DHT22;9206;50.994;4.538;2023-03-04T18:04:15;7.50;99.90
18163;DHT22;9206;50.994;4.538;2023-03-04T18:07:06;7.50;99.90
18163;DHT22;9206;50.994;4.538;2023-03-04T18:09:59;7.40;99.90
18163;DHT22;9206;50.994;4.538;2023-03-04T18:12:47;7.40;99.90
18163;DHT22;9206;50.994;4.538;2023-03-04T18:15:38;7.40;99.90
18163;DHT22;9206;50.994;4.538;2023-03-04T18:18:25;7.40;99.90
18163;DHT22;9206;50.994;4.538;2023-03-04T18:21:12;7.40;99.90
18163;DHT22;9206;50.994;4.538;2023-03-04T18:24:03;7.30;99.90
18163;DHT22;9206;50.994;4.538;2023-03-04T18:26:50;7.30;99.90
18163;DHT22;9206;50.994;4.538;2023-03-04T18:29:37;7.30;99.90
18163;DHT22;9206;50.994;4.538;2023-03-04T18:32:26;7.20;99.90
18163;DHT22;9206;50.994;4.538;2023-03-04T18:35:14;7.20;99.90
18163;DHT22;9206;50.994;4.538;2023-03-04T18:38:01;7.20;99.90
18163;DHT22;9206;50.994;4.538;2023-03-04T18:40:48;7.20;99.90
18163;DHT22;9206;50.994;4.538;2023-03-04T18:43:40;7.20;99.90
18163;DHT22;9206;50.994;4.538;2023-03-04T18:46:30;7.20;99.90
18163;DHT22;9206;50.994;4.538;2023-03-04T18:49:23;7.20;99.90
18163;DHT22;9206;50.994;4.538;2023-03-04T18:52:10;7.10;99.90
18163;DHT22;9206;50.994;4.538;2023-03-04T18:54:58;7.20;99.90
18163;DHT22;9206;50.994;4.538;2023-03-04T18:57:47;7.10;99.90
18163;DHT22;9206;50.994;4.538;2023-03-04T19:00:36;7.10;99.90